Time;durP1;ratioP1;P1;durP2;ratioP2;P2;SDS_P1;SDS_P2;PMS_P1;PMS_P2;Temp;Humidity;BMP_temperature;BMP_pressure;BME280_temperature;BME280_humidity;BME280_pressure;Samples;Min_cycle;Max_cycle;Signal;HPM_P1;HPM_P2
2021/10/10 00:00:09;;;;;;;17.55;11.38;;;4.20;99.90;;;;;;4975157;28;20026;-67
2021/10/10 00:02:35;;;;;;;18.60;10.75;;;4.20;99.90;;;;;;4974989;28;20041;-67
2021/10/10 00:05:00;;;;;;;16.85;11.35;;;4.10;99.90;;;;;;4974992;28;20031;-67
2021/10/10 00:07:26;;;;;;;20.48;11.52;;;4.10;99.90;;;;;;4974958;28;20034;-67
2021/10/10 00:09:51;;;;;;;23.08;12.55;;;4.10;99.90;;;;;;4974969;28;20078;-67
2021/10/10 00:12:17;;;;;;;19.15;12.10;;;4.10;99.90;;;;;;4974820;28;20490;-66
2021/10/10 00:14:42;;;;;;;21.80;12.70;;;4.10;99.90;;;;;;4974805;28;20093;-67
2021/10/10 00:17:08;;;;;;;17.20;11.98;;;4.10;99.90;;;;;;4974871;28;20057;-67
2021/10/10 00:19:34;;;;;;;18.67;11.23;;;4.10;99.90;;;;;;4974786;28;20039;-67
2021/10/10 00:21:59;;;;;;;20.08;11.77;;;4.00;99.90;;;;;;4974829;28;20015;-67
2021/10/10 00:24:24;;;;;;;19.55;11.88;;;4.00;99.90;;;;;;4974720;28;20041;-67
2021/10/10 00:26:50;;;;;;;18.15;11.98;;;3.90;99.90;;;;;;4974740;28;20027;-67
2021/10/10 00:29:16;;;;;;;22.52;11.68;;;3.80;99.90;;;;;;4973826;28;20027;-67
2021/10/10 00:31:42;;;;;;;23.02;11.18;;;3.80;99.90;;;;;;4974830;28;20034;-67
2021/10/10 00:34:08;;;;;;;18.70;11.43;;;3.70;99.90;;;;;;4974528;28;20471;-67
2021/10/10 00:36:34;;;;;;;18.17;11.68;;;3.60;99.90;;;;;;4974524;28;20089;-67
2021/10/10 00:39:00;;;;;;;17.67;11.85;;;3.60;99.90;;;;;;4974780;28;20038;-67
2021/10/10 00:41:25;;;;;;;26.60;10.82;;;3.50;99.90;;;;;;4974693;28;20027;-67
2021/10/10 00:43:51;;;;;;;20.73;12.18;;;3.50;99.90;;;;;;4974481;28;20084;-67
2021/10/10 00:46:16;;;;;;;21.13;10.73;;;3.50;99.90;;;;;;4974469;28;20501;-67
2021/10/10 00:48:42;;;;;;;24.00;12.43;;;3.40;99.90;;;;;;4974707;28;20023;-67
2021/10/10 00:51:07;;;;;;;21.42;11.43;;;3.40;99.90;;;;;;4974235;28;20030;-67
2021/10/10 00:53:36;;;;;;;26.05;12.27;;;3.40;99.90;;;;;;4974383;28;20046;-67
2021/10/10 00:56:03;;;;;;;23.95;12.45;;;3.40;99.90;;;;;;4975050;28;20459;-67
2021/10/10 00:58:29;;;;;;;26.75;12.20;;;3.40;99.90;;;;;;4974307;28;20037;-67
2021/10/10 01:00:55;;;;;;;19.85;12.43;;;3.40;99.90;;;;;;4974871;28;20395;-67
2021/10/10 01:03:22;;;;;;;20.15;12.00;;;3.40;99.90;;;;;;4974354;28;20023;-67
2021/10/10 01:05:48;;;;;;;21.65;11.27;;;3.40;99.90;;;;;;4974487;28;20035;-67
2021/10/10 01:08:17;;;;;;;19.02;11.88;;;3.40;99.90;;;;;;4974249;28;20031;-67
2021/10/10 01:10:49;;;;;;;22.77;12.60;;;3.30;99.90;;;;;;4974225;28;20117;-67
2021/10/10 01:13:15;;;;;;;24.35;12.05;;;3.30;99.90;;;;;;4974034;28;20085;-67
2021/10/10 01:15:41;;;;;;;17.58;11.13;;;3.30;99.90;;;;;;4974111;28;20446;-67
2021/10/10 01:18:07;;;;;;;21.73;11.75;;;3.20;99.90;;;;;;4974406;28;20390;-67
2021/10/10 01:20:47;;;;;;;22.33;11.52;;;3.20;99.90;;;;;;4974241;28;20027;-67
2021/10/10 01:23:13;;;;;;;17.95;11.88;;;3.20;99.90;;;;;;4974017;28;20031;-67
2021/10/10 01:25:38;;;;;;;20.30;12.30;;;3.10;99.90;;;;;;4974083;28;20030;-67
2021/10/10 01:28:04;;;;;;;21.40;11.80;;;3.10;99.90;;;;;;4974339;28;20062;-67
2021/10/10 01:30:30;;;;;;;16.55;10.70;;;3.10;99.90;;;;;;4974059;28;20070;-67
2021/10/10 01:32:57;;;;;;;18.27;11.30;;;3.10;99.90;;;;;;4974239;28;20031;-67
2021/10/10 01:35:23;;;;;;;20.67;11.98;;;3.00;99.90;;;;;;4974214;28;20019;-67
2021/10/10 01:37:49;;;;;;;19.27;12.68;;;3.00;99.90;;;;;;4974266;28;20066;-67
2021/10/10 01:40:15;;;;;;;20.48;11.60;;;3.10;99.90;;;;;;4975753;28;20054;-67
2021/10/10 01:42:40;;;;;;;26.67;13.13;;;3.10;99.90;;;;;;4977555;28;20042;-67
2021/10/10 01:45:24;;;;;;;22.33;13.25;;;3.00;99.90;;;;;;4977574;28;20033;-67
2021/10/10 01:47:50;;;;;;;22.65;12.40;;;3.10;99.90;;;;;;4977848;28;20105;-67
2021/10/10 01:50:16;;;;;;;20.77;13.10;;;3.10;99.90;;;;;;4977729;28;20558;-67
2021/10/10 01:52:43;;;;;;;23.08;13.00;;;3.10;99.90;;;;;;4977336;28;20528;-67
2021/10/10 01:55:10;;;;;;;22.73;13.40;;;3.10;99.90;;;;;;4977582;28;20026;-67
2021/10/10 01:57:36;;;;;;;23.08;12.70;;;3.20;99.90;;;;;;4977322;28;20474;-67
2021/10/10 02:00:06;;;;;;;20.75;13.48;;;3.20;99.90;;;;;;4977272;28;20030;-67
2021/10/10 02:02:32;;;;;;;20.25;12.70;;;3.20;99.90;;;;;;4977169;28;20105;-67
2021/10/10 02:04:57;;;;;;;21.55;12.40;;;3.20;99.90;;;;;;4977210;28;20116;-67
2021/10/10 02:07:23;;;;;;;27.40;13.73;;;3.20;99.90;;;;;;4977144;28;20040;-67
2021/10/10 02:09:49;;;;;;;22.10;13.75;;;3.20;99.90;;;;;;4977377;28;20018;-68
2021/10/10 02:12:14;;;;;;;25.45;15.93;;;3.30;99.90;;;;;;4977008;28;20118;-67
2021/10/10 02:14:40;;;;;;;22.58;14.65;;;3.30;99.90;;;;;;4976967;28;20042;-67
2021/10/10 02:17:05;;;;;;;24.98;14.63;;;3.30;99.90;;;;;;4977138;28;20023;-67
2021/10/10 02:19:32;;;;;;;31.60;16.25;;;3.40;99.90;;;;;;4976954;28;20026;-67
2021/10/10 02:21:58;;;;;;;29.17;15.68;;;3.50;99.90;;;;;;4977094;28;20367;-67
2021/10/10 02:24:23;;;;;;;29.10;16.42;;;3.50;99.90;;;;;;4976843;28;20041;-67
2021/10/10 02:26:49;;;;;;;33.58;17.67;;;3.60;99.90;;;;;;4977089;28;20522;-67
2021/10/10 02:29:15;;;;;;;33.67;16.25;;;3.70;99.90;;;;;;4977023;28;20031;-67
2021/10/10 02:31:43;;;;;;;30.15;18.13;;;3.80;99.90;;;;;;4976930;28;20022;-67
2021/10/10 02:34:13;;;;;;;25.80;16.50;;;3.90;99.90;;;;;;4976597;28;20418;-67
2021/10/10 02:36:41;;;;;;;37.22;17.90;;;3.90;99.90;;;;;;4976604;28;20414;-67
2021/10/10 02:39:07;;;;;;;27.90;17.65;;;4.00;99.90;;;;;;4976883;28;20019;-67
2021/10/10 02:41:33;;;;;;;28.60;16.55;;;4.00;99.90;;;;;;4976460;28;20026;-67
2021/10/10 02:43:59;;;;;;;33.53;16.83;;;4.00;99.90;;;;;;4976679;28;20027;-67
2021/10/10 02:46:24;;;;;;;27.67;17.50;;;4.00;99.90;;;;;;4976704;28;20026;-67
2021/10/10 02:48:50;;;;;;;30.27;17.83;;;4.10;99.90;;;;;;4976685;28;20023;-67
2021/10/10 02:51:15;;;;;;;34.95;16.50;;;4.20;99.90;;;;;;4975236;28;20048;-67
2021/10/10 02:53:41;;;;;;;33.28;18.83;;;4.20;99.90;;;;;;4976600;28;20105;-67
2021/10/10 02:56:07;;;;;;;32.55;17.60;;;4.20;99.90;;;;;;4976520;28;20494;-67
2021/10/10 02:58:33;;;;;;;33.55;18.92;;;4.30;99.90;;;;;;4976240;28;20035;-67
2021/10/10 03:00:58;;;;;;;29.17;15.60;;;4.20;99.90;;;;;;4976166;28;20033;-67
2021/10/10 03:03:24;;;;;;;27.55;15.60;;;4.10;99.90;;;;;;4976035;28;20030;-67
2021/10/10 03:05:50;;;;;;;25.02;15.18;;;4.00;99.90;;;;;;4976133;28;20502;-67
2021/10/10 03:08:15;;;;;;;23.95;15.02;;;3.90;99.90;;;;;;4976037;28;20546;-67
2021/10/10 03:10:41;;;;;;;29.23;15.75;;;3.80;99.90;;;;;;4976084;28;20053;-67
2021/10/10 03:13:07;;;;;;;28.25;15.38;;;3.70;99.90;;;;;;4975854;28;20084;-67
2021/10/10 03:15:39;;;;;;;28.63;15.27;;;3.70;99.90;;;;;;4976100;28;20495;-67
2021/10/10 03:18:05;;;;;;;30.08;15.15;;;3.70;99.90;;;;;;4976018;28;20031;-67
2021/10/10 03:20:32;;;;;;;32.05;16.10;;;3.60;99.90;;;;;;4976073;28;20088;-67
2021/10/10 03:22:57;;;;;;;24.38;14.27;;;3.60;99.90;;;;;;4975793;28;20034;-67
2021/10/10 03:25:23;;;;;;;26.55;16.75;;;3.60;99.90;;;;;;4975986;28;20037;-67
2021/10/10 03:27:49;;;;;;;25.10;16.00;;;3.50;99.90;;;;;;4975815;28;20027;-67
2021/10/10 03:30:14;;;;;;;24.05;15.30;;;3.50;99.90;;;;;;4975910;28;20031;-67
2021/10/10 03:32:40;;;;;;;26.83;14.60;;;3.50;99.90;;;;;;4975597;28;20482;-67
2021/10/10 03:35:06;;;;;;;32.55;15.68;;;3.50;99.90;;;;;;4975640;28;20042;-67
2021/10/10 03:37:35;;;;;;;26.98;16.48;;;3.50;99.90;;;;;;4975474;28;20027;-67
2021/10/10 03:40:10;;;;;;;26.08;15.98;;;3.40;99.90;;;;;;4975707;28;20430;-67
2021/10/10 03:42:36;;;;;;;25.35;14.98;;;3.40;99.90;;;;;;4975329;28;20023;-67
2021/10/10 03:45:03;;;;;;;33.42;17.80;;;3.40;99.90;;;;;;4975599;28;20073;-67
2021/10/10 03:47:28;;;;;;;33.20;17.65;;;3.40;99.90;;;;;;4975803;28;20054;-67
2021/10/10 03:49:54;;;;;;;36.92;18.98;;;3.40;99.90;;;;;;4975551;28;20069;-67
2021/10/10 03:52:19;;;;;;;38.08;16.48;;;3.50;99.90;;;;;;4975053;28;20050;-67
2021/10/10 03:55:11;;;;;;;36.05;16.92;;;3.50;99.90;;;;;;4975367;28;20027;-67
2021/10/10 03:57:33;;;;;;;27.90;15.82;;;3.50;99.90;;;;;;4975129;28;20033;-67
2021/10/10 04:00:02;;;;;;;29.45;16.48;;;3.40;99.90;;;;;;4975105;28;20097;-68
2021/10/10 04:02:27;;;;;;;27.48;15.68;;;3.40;99.90;;;;;;4974870;28;20069;-67
2021/10/10 04:04:54;;;;;;;25.75;15.90;;;3.40;99.90;;;;;;4975278;28;20430;-67
2021/10/10 04:07:20;;;;;;;35.47;16.90;;;3.40;99.90;;;;;;4975270;28;20038;-67
2021/10/10 04:09:46;;;;;;;33.88;16.95;;;3.40;99.90;;;;;;4975230;28;20368;-67
2021/10/10 04:12:12;;;;;;;34.35;17.35;;;3.40;99.90;;;;;;4974801;28;20027;-67
2021/10/10 04:14:38;;;;;;;30.85;17.38;;;3.40;99.90;;;;;;4974800;28;20027;-67
2021/10/10 04:17:04;;;;;;;26.48;16.02;;;3.40;99.90;;;;;;4975091;28;20611;-67
2021/10/10 04:19:31;;;;;;;24.73;15.82;;;3.30;99.90;;;;;;4974798;28;20501;-67
2021/10/10 04:21:57;;;;;;;28.70;15.68;;;3.30;99.90;;;;;;4974944;28;20035;-67
2021/10/10 04:24:22;;;;;;;26.58;15.48;;;3.30;99.90;;;;;;4974969;28;20434;-67
2021/10/10 04:26:48;;;;;;;25.05;14.63;;;3.30;99.90;;;;;;4974879;28;20030;-67
2021/10/10 04:29:13;;;;;;;32.28;16.45;;;3.20;99.90;;;;;;4974640;28;20085;-67
2021/10/10 04:31:39;;;;;;;24.60;14.77;;;3.20;99.90;;;;;;4974573;28;20534;-67
2021/10/10 04:34:04;;;;;;;26.75;15.45;;;3.20;99.90;;;;;;4974503;28;20045;-67
2021/10/10 04:36:30;;;;;;;24.15;14.38;;;3.10;99.90;;;;;;4974751;28;20033;-67
2021/10/10 04:38:55;;;;;;;29.42;16.88;;;3.20;99.90;;;;;;4974517;28;20033;-67
2021/10/10 04:41:21;;;;;;;35.00;16.15;;;3.10;99.90;;;;;;4974702;28;20037;-67
2021/10/10 04:43:47;;;;;;;41.33;17.13;;;3.10;99.90;;;;;;4974762;28;20027;-67
2021/10/10 04:46:13;;;;;;;30.90;17.73;;;3.10;99.90;;;;;;4974437;28;20023;-67
2021/10/10 04:48:38;;;;;;;30.75;18.25;;;3.20;99.90;;;;;;4974420;28;20026;-67
2021/10/10 04:51:04;;;;;;;35.28;17.83;;;3.20;99.90;;;;;;4974229;28;20027;-67
2021/10/10 04:53:30;;;;;;;32.22;17.58;;;3.20;99.90;;;;;;4974390;28;20027;-67
2021/10/10 04:55:56;;;;;;;26.70;16.98;;;3.20;99.90;;;;;;4975082;28;20041;-67
2021/10/10 04:58:21;;;;;;;32.85;17.92;;;3.20;99.90;;;;;;4974633;28;20050;-67
2021/10/10 05:00:47;;;;;;;33.35;18.00;;;3.20;99.90;;;;;;4974582;28;20019;-67
2021/10/10 05:03:12;;;;;;;28.38;17.67;;;3.10;99.90;;;;;;4974256;28;20074;-67
2021/10/10 05:05:41;;;;;;;33.88;18.02;;;3.10;99.90;;;;;;4974253;28;20031;-67
2021/10/10 05:08:10;;;;;;;40.45;20.17;;;3.10;99.90;;;;;;4974540;28;20044;-67
2021/10/10 05:10:36;;;;;;;29.27;17.17;;;3.10;99.90;;;;;;4974136;28;20379;-67
2021/10/10 05:13:02;;;;;;;29.40;17.42;;;3.10;99.90;;;;;;4974122;28;20038;-67
2021/10/10 05:15:28;;;;;;;32.80;17.52;;;3.00;99.90;;;;;;4976457;28;20110;-67
2021/10/10 05:17:53;;;;;;;34.22;19.02;;;3.10;99.90;;;;;;4978318;28;20109;-67
2021/10/10 05:20:19;;;;;;;47.00;17.55;;;3.10;99.90;;;;;;4978200;28;20031;-67
2021/10/10 05:22:44;;;;;;;37.05;18.40;;;3.00;99.90;;;;;;4977905;28;20027;-67
2021/10/10 05:25:10;;;;;;;36.10;19.33;;;3.10;99.90;;;;;;4978208;28;20541;-67
2021/10/10 05:27:36;;;;;;;31.48;16.70;;;3.10;99.90;;;;;;4978171;28;20026;-67
2021/10/10 05:30:02;;;;;;;41.13;18.55;;;3.10;99.90;;;;;;4977901;28;20045;-67
2021/10/10 05:32:28;;;;;;;32.28;18.77;;;3.10;99.90;;;;;;4978541;28;20029;-67
2021/10/10 05:34:53;;;;;;;33.15;19.17;;;3.10;99.90;;;;;;4977744;28;20038;-67
2021/10/10 05:37:19;;;;;;;37.72;20.17;;;3.10;99.90;;;;;;4977974;28;20077;-67
2021/10/10 05:39:45;;;;;;;35.50;19.75;;;3.10;99.90;;;;;;4977690;28;20406;-67
2021/10/10 05:42:11;;;;;;;33.10;19.73;;;3.10;99.90;;;;;;4977594;28;20054;-67
2021/10/10 05:44:36;;;;;;;32.92;19.63;;;3.10;99.90;;;;;;4977619;28;20545;-66
2021/10/10 05:47:02;;;;;;;32.33;19.02;;;3.20;99.90;;;;;;4977796;28;20040;-67
2021/10/10 05:49:27;;;;;;;30.55;18.95;;;3.20;99.90;;;;;;4976274;28;20038;-67
2021/10/10 05:51:53;;;;;;;36.00;19.00;;;3.10;99.90;;;;;;5030491;23;20505;-72
2021/10/10 05:54:20;;;;;;;32.30;19.52;;;3.10;99.90;;;;;;4977673;28;20039;-72
2021/10/10 05:56:46;;;;;;;40.75;20.05;;;3.20;99.90;;;;;;4977391;28;20026;-72
2021/10/10 05:59:15;;;;;;;41.78;20.73;;;3.20;99.90;;;;;;4992343;28;20557;-72
2021/10/10 06:01:40;;;;;;;37.03;20.30;;;3.20;99.90;;;;;;4977253;28;20068;-71
2021/10/10 06:04:06;;;;;;;38.85;20.23;;;3.20;99.90;;;;;;4977241;28;20027;-71
2021/10/10 06:06:32;;;;;;;37.58;19.25;;;3.30;99.90;;;;;;4977480;28;20521;-72
2021/10/10 06:08:57;;;;;;;31.23;18.95;;;3.30;99.90;;;;;;4992154;28;20114;-71
2021/10/10 06:11:23;;;;;;;35.22;19.88;;;3.30;99.90;;;;;;4977154;28;20376;-72
2021/10/10 06:13:49;;;;;;;39.85;19.73;;;3.40;99.90;;;;;;4976972;28;20035;-72
2021/10/10 06:16:15;;;;;;;37.72;20.75;;;3.40;99.90;;;;;;4977025;28;20019;-72
2021/10/10 06:18:41;;;;;;;48.00;21.35;;;3.50;99.90;;;;;;4977269;28;20024;-72
2021/10/10 06:21:07;;;;;;;33.20;19.73;;;3.50;99.90;;;;;;4977199;28;20027;-72
2021/10/10 06:23:32;;;;;;;40.22;20.42;;;3.60;99.90;;;;;;4976825;28;20074;-72
2021/10/10 06:25:58;;;;;;;36.85;21.15;;;3.70;99.90;;;;;;4976157;28;20062;-72
2021/10/10 06:28:23;;;;;;;39.55;21.63;;;3.80;99.90;;;;;;4976787;28;20501;-72
2021/10/10 06:30:49;;;;;;;37.03;21.48;;;3.80;99.90;;;;;;4977058;28;20454;-71
2021/10/10 06:33:15;;;;;;;40.53;21.17;;;3.90;99.90;;;;;;4976681;28;20023;-72
2021/10/10 06:35:40;;;;;;;45.53;21.85;;;4.00;99.90;;;;;;4976630;28;20101;-72
2021/10/10 06:38:06;;;;;;;42.40;21.48;;;4.00;99.90;;;;;;4976623;28;20074;-71
2021/10/10 06:40:32;;;;;;;39.03;20.00;;;4.10;99.90;;;;;;4976854;28;20038;-72
2021/10/10 06:42:57;;;;;;;36.08;20.20;;;4.10;99.90;;;;;;4976514;28;20065;-72
2021/10/10 06:45:23;;;;;;;35.17;20.58;;;4.10;99.90;;;;;;4976528;28;20398;-71
2021/10/10 06:47:48;;;;;;;42.47;19.95;;;4.20;99.90;;;;;;4976493;28;20030;-72
2021/10/10 06:50:14;;;;;;;41.15;21.13;;;4.20;99.90;;;;;;4991358;28;20034;-72
2021/10/10 06:52:39;;;;;;;37.90;21.23;;;4.30;99.90;;;;;;4976192;28;20570;-72
2021/10/10 06:55:05;;;;;;;40.05;20.02;;;4.30;99.90;;;;;;4976787;28;20038;-72
2021/10/10 06:57:32;;;;;;;45.53;19.88;;;4.30;99.90;;;;;;4976542;28;20022;-72
2021/10/10 06:59:59;;;;;;;43.78;21.98;;;4.40;99.90;;;;;;4976381;28;20019;-71
2021/10/10 07:02:25;;;;;;;40.05;21.40;;;4.40;99.90;;;;;;4976346;28;20113;-72
2021/10/10 07:04:51;;;;;;;46.60;21.17;;;4.50;99.90;;;;;;4976167;28;20035;-72
2021/10/10 07:07:16;;;;;;;36.83;20.25;;;4.60;99.90;;;;;;4976065;28;20027;-72
2021/10/10 07:09:42;;;;;;;41.58;22.27;;;4.70;99.90;;;;;;4976044;28;20031;-72
2021/10/10 07:12:08;;;;;;;40.25;22.08;;;4.80;99.90;;;;;;4976165;28;20054;-72
2021/10/10 07:14:33;;;;;;;39.55;20.55;;;4.90;99.90;;;;;;4975863;28;20496;-71
2021/10/10 07:16:59;;;;;;;39.70;20.67;;;5.00;99.90;;;;;;4975955;28;20473;-72
2021/10/10 07:19:32;;;;;;;38.15;20.27;;;5.10;99.90;;;;;;4975903;28;20018;-72
2021/10/10 07:22:02;;;;;;;33.53;20.42;;;5.20;99.90;;;;;;4975856;28;20030;-72
2021/10/10 07:27:12;;;;;;;37.10;21.38;;;5.40;99.90;;;;;;4976098;28;20118;-72
2021/10/10 07:29:38;;;;;;;34.47;19.38;;;5.50;99.90;;;;;;4976266;28;20062;-72
2021/10/10 07:32:04;;;;;;;36.83;19.42;;;5.60;99.90;;;;;;4975840;28;20102;-72
2021/10/10 07:34:30;;;;;;;37.45;20.75;;;5.70;99.90;;;;;;4975484;28;20505;-71
2021/10/10 07:36:55;;;;;;;31.70;19.85;;;5.80;99.90;;;;;;4975256;28;20023;-72
2021/10/10 07:39:21;;;;;;;32.90;19.25;;;5.90;99.90;;;;;;4975425;28;20063;-72
2021/10/10 07:41:46;;;;;;;29.15;18.17;;;5.90;99.90;;;;;;4976295;28;20025;-72
2021/10/10 07:44:12;;;;;;;37.03;19.75;;;6.00;99.90;;;;;;4975417;28;20030;-72
2021/10/10 07:46:41;;;;;;;40.28;19.08;;;6.10;99.90;;;;;;4975427;28;20610;-72
2021/10/10 07:49:09;;;;;;;29.15;18.58;;;6.20;99.90;;;;;;4974097;28;20449;-72
2021/10/10 07:51:36;;;;;;;35.30;19.20;;;6.30;99.90;;;;;;4975310;28;20410;-72
2021/10/10 07:54:03;;;;;;;37.90;17.67;;;6.40;99.90;;;;;;4975089;28;20403;-72
2021/10/10 07:56:28;;;;;;;27.15;17.77;;;6.40;99.90;;;;;;4975213;28;20027;-72
2021/10/10 07:58:54;;;;;;;27.10;17.77;;;6.60;99.90;;;;;;4975152;28;20028;-72
2021/10/10 08:01:20;;;;;;;30.13;17.20;;;6.80;99.90;;;;;;4975219;28;20390;-72
2021/10/10 08:03:46;;;;;;;31.60;16.02;;;7.00;99.90;;;;;;4975056;28;20023;-72
2021/10/10 08:06:12;;;;;;;23.60;16.15;;;7.10;99.90;;;;;;4975062;28;20398;-72
2021/10/10 08:08:37;;;;;;;28.98;16.30;;;7.30;99.90;;;;;;4975029;28;20027;-72
2021/10/10 08:11:03;;;;;;;29.08;16.25;;;7.40;99.90;;;;;;4974944;28;20394;-72
2021/10/10 08:13:29;;;;;;;29.83;16.48;;;7.50;99.90;;;;;;4974931;28;20051;-72
2021/10/10 08:15:55;;;;;;;40.83;17.60;;;7.70;99.90;;;;;;4975065;28;20027;-72
2021/10/10 08:18:21;;;;;;;26.67;15.18;;;7.90;99.90;;;;;;4975049;28;20043;-72
2021/10/10 08:20:47;;;;;;;26.15;14.02;;;8.00;99.90;;;;;;4974781;28;20029;-72
2021/10/10 08:23:12;;;;;;;20.52;13.77;;;8.10;99.90;;;;;;4974740;28;20030;-72
2021/10/10 08:25:38;;;;;;;24.10;12.88;;;8.30;99.90;;;;;;4974978;28;20034;-72
2021/10/10 08:28:04;;;;;;;29.60;14.82;;;8.40;99.90;;;;;;4974736;28;20074;-72
2021/10/10 08:30:31;;;;;;;26.48;14.43;;;8.60;99.90;;;;;;4974913;28;20030;-72
2021/10/10 08:32:56;;;;;;;26.73;14.05;;;8.60;99.90;;;;;;4974559;28;20093;-72
2021/10/10 08:35:22;;;;;;;21.88;14.57;;;8.70;99.90;;;;;;4974621;28;20035;-72
2021/10/10 08:37:48;;;;;;;24.98;14.57;;;8.90;99.90;;;;;;4974580;28;20039;-72
2021/10/10 08:40:15;;;;;;;24.10;13.75;;;9.00;99.90;;;;;;4975092;28;20027;-72
2021/10/10 08:42:46;;;;;;;26.90;14.00;;;9.20;99.90;;;;;;4974609;28;20029;-72
2021/10/10 08:45:21;;;;;;;28.45;13.98;;;9.30;99.90;;;;;;4974482;28;20086;-72
2021/10/10 08:47:46;;;;;;;29.73;15.25;;;9.40;99.90;;;;;;4974804;28;20027;-72
2021/10/10 08:50:23;;;;;;;27.05;14.25;;;9.50;99.90;;;;;;4974000;28;20034;-72
2021/10/10 08:52:52;;;;;;;29.27;13.70;;;9.60;99.90;;;;;;4974474;28;20383;-72
2021/10/10 08:55:18;;;;;;;23.35;12.25;;;9.50;99.90;;;;;;4974360;28;20031;-73
2021/10/10 08:57:44;;;;;;;23.80;13.82;;;9.50;99.90;;;;;;4974416;28;20030;-72
2021/10/10 09:00:17;;;;;;;30.80;15.07;;;9.50;99.90;;;;;;4974641;28;20070;-72
2021/10/10 09:02:46;;;;;;;29.45;14.20;;;9.30;99.90;;;;;;4974475;28;20037;-72
2021/10/10 09:05:12;;;;;;;21.05;12.98;;;9.30;99.90;;;;;;4974591;28;20027;-72
2021/10/10 09:07:38;;;;;;;25.45;13.32;;;9.30;99.90;;;;;;4974269;28;20393;-72
2021/10/10 09:10:25;;;;;;;25.80;13.38;;;9.30;99.90;;;;;;4974295;28;20039;-72
2021/10/10 09:12:51;;;;;;;22.70;14.02;;;9.40;99.90;;;;;;4974252;28;20031;-72
2021/10/10 09:15:21;;;;;;;28.25;12.50;;;9.50;99.90;;;;;;4974427;28;20031;-71
2021/10/10 09:17:58;;;;;;;26.10;12.98;;;9.70;99.90;;;;;;4974522;28;20034;-72
2021/10/10 09:20:34;;;;;;;24.48;13.60;;;10.10;99.90;;;;;;4974306;28;20138;-72
2021/10/10 09:23:01;;;;;;;20.70;13.10;;;10.40;99.90;;;;;;4972881;28;20038;-72
2021/10/10 09:25:27;;;;;;;21.48;13.35;;;10.70;99.90;;;;;;4974136;28;20027;-72
2021/10/10 09:27:53;;;;;;;23.75;13.63;;;10.90;99.90;;;;;;4974522;28;20033;-72
2021/10/10 09:30:22;;;;;;;19.85;12.75;;;10.90;99.90;;;;;;4974122;28;20030;-72
2021/10/10 09:32:55;;;;;;;19.60;13.05;;;11.10;99.90;;;;;;4974048;28;20041;-72
2021/10/10 09:35:29;;;;;;;23.35;12.98;;;11.10;99.90;;;;;;4974338;28;20027;-72
2021/10/10 09:38:08;;;;;;;21.52;13.85;;;11.10;99.90;;;;;;4974187;28;20038;-72
2021/10/10 09:40:39;;;;;;;18.48;12.75;;;11.10;99.90;;;;;;4974618;28;20031;-72
2021/10/10 09:43:06;;;;;;;24.30;13.70;;;11.30;99.90;;;;;;4974278;28;20022;-72
2021/10/10 09:45:53;;;;;;;24.35;11.95;;;11.40;99.90;;;;;;4974227;28;20030;-72
2021/10/10 09:48:30;;;;;;;20.25;11.32;;;11.60;99.90;;;;;;4973624;28;20050;-72
2021/10/10 09:50:56;;;;;;;19.90;11.88;;;11.80;99.90;;;;;;4974204;28;20037;-72
2021/10/10 09:53:30;;;;;;;23.38;13.40;;;11.90;99.90;;;;;;4973716;28;20410;-72
2021/10/10 09:56:03;;;;;;;21.75;13.32;;;11.90;99.90;;;;;;4974399;28;20054;-72
2021/10/10 09:58:40;;;;;;;21.90;11.77;;;12.00;99.90;;;;;;4974984;28;20372;-72
2021/10/10 10:01:16;;;;;;;23.15;13.07;;;12.00;99.90;;;;;;4975902;28;20029;-72
2021/10/10 10:03:58;;;;;;;30.65;14.18;;;12.10;99.90;;;;;;4977514;28;20030;-72
2021/10/10 10:06:24;;;;;;;21.67;12.70;;;12.10;99.90;;;;;;4977555;28;20023;-72
2021/10/10 10:08:50;;;;;;;22.38;12.45;;;12.20;99.90;;;;;;4978014;28;20407;-72
2021/10/10 10:11:16;;;;;;;24.40;12.85;;;12.20;99.90;;;;;;4977187;28;20054;-72
2021/10/10 10:13:43;;;;;;;21.88;12.45;;;12.20;99.90;;;;;;4977173;28;20130;-72
2021/10/10 10:16:12;;;;;;;19.88;12.23;;;12.20;99.90;;;;;;4977064;28;20414;-72
2021/10/10 10:18:40;;;;;;;21.73;13.43;;;12.10;99.90;;;;;;4992024;28;20027;-72
2021/10/10 10:21:06;;;;;;;22.90;13.15;;;12.00;99.90;;;;;;4977206;28;20037;-72
2021/10/10 10:23:34;;;;;;;20.60;12.00;;;12.00;99.90;;;;;;4976955;28;20493;-72
2021/10/10 10:26:01;;;;;;;23.58;12.30;;;12.10;99.90;;;;;;4976783;28;20039;-72
2021/10/10 10:28:26;;;;;;;23.67;12.45;;;12.20;99.90;;;;;;4976836;28;20494;-72
2021/10/10 10:30:52;;;;;;;24.13;12.57;;;12.20;99.90;;;;;;4977044;28;20074;-72
2021/10/10 10:33:18;;;;;;;28.95;13.05;;;12.10;99.90;;;;;;4976699;28;20026;-73
2021/10/10 10:35:45;;;;;;;25.08;13.18;;;11.90;99.90;;;;;;4976629;28;20023;-72
2021/10/10 10:38:10;;;;;;;22.50;12.23;;;11.70;99.90;;;;;;4976722;28;20027;-72
2021/10/10 10:40:39;;;;;;;21.17;12.88;;;11.80;99.90;;;;;;4976624;28;20027;-72
2021/10/10 10:43:05;;;;;;;19.30;12.70;;;12.30;99.90;;;;;;4976625;28;20030;-73
2021/10/10 10:45:37;;;;;;;17.38;11.32;;;12.60;99.90;;;;;;4976834;28;20030;-72
2021/10/10 10:48:31;;;;;;;21.75;12.15;;;12.50;99.90;;;;;;4976844;28;20023;-72
2021/10/10 10:51:33;;;;;;;18.02;12.18;;;12.60;99.90;;;;;;4976654;28;20101;-72
2021/10/10 10:54:36;;;;;;;20.77;11.50;;;12.60;99.90;;;;;;4976284;28;20128;-73
2021/10/10 10:57:28;;;;;;;26.23;12.52;;;12.70;99.90;;;;;;4976609;28;20367;-72
2021/10/10 11:00:12;;;;;;;18.40;10.95;;;13.10;99.90;;;;;;4976584;28;20467;-72
2021/10/10 11:02:48;;;;;;;24.17;12.05;;;13.40;99.90;;;;;;4976328;28;20031;-72
2021/10/10 11:05:31;;;;;;;17.98;12.15;;;13.70;99.90;;;;;;4976229;28;20102;-73
2021/10/10 11:08:17;;;;;;;18.67;11.33;;;14.00;99.90;;;;;;4976485;28;20023;-73
2021/10/10 11:11:04;;;;;;;17.63;11.18;;;14.20;99.90;;;;;;4969140;28;20270;-72
2021/10/10 11:13:35;;;;;;;21.13;11.20;;;14.30;99.90;;;;;;4975550;28;20125;-72
2021/10/10 11:16:08;;;;;;;26.33;12.23;;;14.30;99.90;;;;;;4990906;28;20034;-73
2021/10/10 11:18:36;;;;;;;23.70;13.00;;;14.30;99.90;;;;;;4975963;28;20025;-72
2021/10/10 11:21:05;;;;;;;27.45;11.45;;;14.50;99.90;;;;;;4975889;28;20029;-72
2021/10/10 11:23:31;;;;;;;20.13;11.45;;;14.70;99.90;;;;;;4975781;28;20023;-72
2021/10/10 11:26:01;;;;;;;18.67;11.73;;;14.60;99.90;;;;;;4976056;28;20081;-73
2021/10/10 11:28:37;;;;;;;22.60;12.07;;;14.70;99.90;;;;;;4974481;28;20033;-72
2021/10/10 11:31:11;;;;;;;23.35;13.73;;;14.80;99.90;;;;;;4990667;28;20034;-72
2021/10/10 11:33:39;;;;;;;26.13;12.48;;;15.20;99.90;;;;;;4975650;28;20031;-72
2021/10/10 11:36:05;;;;;;;21.25;11.88;;;15.50;99.90;;;;;;4975501;28;20487;-72
2021/10/10 11:38:55;;;;;;;15.48;11.63;;;15.70;99.90;;;;;;4975836;28;20026;-73
2021/10/10 11:41:23;;;;;;;22.63;11.77;;;16.10;99.90;;;;;;4975575;28;20449;-72
2021/10/10 11:44:16;;;;;;;20.23;11.13;;;16.00;99.90;;;;;;4975686;28;20033;-72
2021/10/10 11:46:49;;;;;;;16.88;10.52;;;16.10;99.90;;;;;;4974025;28;20041;-72
2021/10/10 11:54:55;;;;;;;15.20;10.35;;;16.90;99.90;;;;;;4998743;23;20391;-71
2021/10/10 11:57:21;;;;;;;20.92;10.50;;;16.90;99.90;;;;;;4975249;28;20479;-71
2021/10/10 12:00:01;;;;;;;21.42;11.07;;;17.20;99.90;;;;;;4975153;28;20033;-71
2021/10/10 12:02:36;;;;;;;14.60;10.45;;;17.20;99.90;;;;;;4975156;28;20031;-71
2021/10/10 12:05:10;;;;;;;16.58;10.63;;;17.20;99.90;;;;;;4956047;28;20111;-70
2021/10/10 12:07:36;;;;;;;21.77;10.13;;;17.10;99.90;;;;;;4955781;28;20035;-71
2021/10/10 12:10:08;;;;;;;14.02;9.23;;;16.80;99.90;;;;;;4955734;28;20030;-71
2021/10/10 12:12:33;;;;;;;14.98;9.57;;;16.60;99.90;;;;;;4956225;29;20378;-70
2021/10/10 12:15:00;;;;;;;13.88;9.00;;;16.70;99.90;;;;;;4955742;28;20110;-71
2021/10/10 12:17:27;;;;;;;15.73;9.85;;;16.60;99.90;;;;;;4970424;28;20019;-71
2021/10/10 12:19:54;;;;;;;20.45;10.88;;;16.60;99.90;;;;;;4955827;28;20075;-70
2021/10/10 12:22:20;;;;;;;17.33;10.40;;;16.90;99.90;;;;;;4955780;28;20023;-71
2021/10/10 12:24:47;;;;;;;18.88;10.80;;;17.20;99.90;;;;;;4955602;28;20061;-71
2021/10/10 12:27:27;;;;;;;16.02;10.48;;;17.30;99.90;;;;;;4955452;28;20123;-70
2021/10/10 12:29:54;;;;;;;16.65;11.27;;;17.80;99.90;;;;;;4955640;28;20023;-71
2021/10/10 12:32:22;;;;;;;18.67;10.57;;;17.90;99.90;;;;;;4955635;28;20053;-70
2021/10/10 12:34:48;;;;;;;17.08;10.27;;;18.10;99.90;;;;;;4953966;28;20023;-71
2021/10/10 12:37:19;;;;;;;14.30;10.90;;;18.30;99.90;;;;;;4955303;28;20027;-71
2021/10/10 12:39:46;;;;;;;16.45;10.32;;;18.60;99.90;;;;;;4955835;28;20427;-71
2021/10/10 12:42:12;;;;;;;14.77;10.18;;;18.70;99.90;;;;;;4955411;28;20027;-71
2021/10/10 12:44:38;;;;;;;17.65;9.55;;;19.10;99.90;;;;;;4970016;28;20394;-70